Time;durP1;ratioP1;P1;durP2;ratioP2;P2;SDS_P1;SDS_P2;PMS_P1;PMS_P2;Temp;Humidity;BMP_temperature;BMP_pressure;BME280_temperature;BME280_humidity;BME280_pressure;Samples;Min_cycle;Max_cycle;Signal;HPM_P1;HPM_P2
2022/08/15 00:01:09;;;;;;;9.93;9.13;;;;;;;21.07;91.76;99330.43;1707703;83;21054;-78
2022/08/15 00:03:43;;;;;;;10.70;9.80;;;;;;;21.03;92.00;99335.52;1692605;83;21008;-79
2022/08/15 00:06:15;;;;;;;13.65;9.70;;;;;;;21.03;92.05;99325.39;1710882;83;20949;-78
2022/08/15 00:08:48;;;;;;;10.28;9.20;;;;;;;21.10;91.59;99321.56;1689971;83;21625;-78
2022/08/15 00:11:19;;;;;;;9.98;9.08;;;;;;;21.16;90.87;99322.22;1684057;83;21580;-77
2022/08/15 00:13:51;;;;;;;12.68;9.35;;;;;;;21.16;90.75;99324.39;1693172;82;21181;-78
2022/08/15 00:16:18;;;;;;;11.63;7.93;;;;;;;21.18;90.68;99330.34;1688899;83;20932;-74
2022/08/15 00:18:47;;;;;;;11.22;8.15;;;;;;;21.19;90.53;99327.86;1690093;83;20953;-73
2022/08/15 00:21:14;;;;;;;9.98;9.10;;;;;;;21.18;90.44;99330.91;1711055;83;22199;-75
2022/08/15 00:23:41;;;;;;;10.43;8.28;;;;;;;21.21;90.35;99331.61;1687987;83;21020;-74
2022/08/15 00:26:09;;;;;;;12.45;10.00;;;;;;;21.22;90.20;99320.91;1708419;82;22043;-74
2022/08/15 00:28:37;;;;;;;10.58;8.43;;;;;;;21.25;89.95;99322.41;1688370;83;21178;-75
2022/08/15 00:31:05;;;;;;;8.90;8.08;;;;;;;21.21;89.86;99322.03;1706099;83;21055;-75
2022/08/15 00:33:33;;;;;;;16.70;8.18;;;;;;;21.21;89.92;99322.03;1675115;84;21109;-76
2022/08/15 00:36:00;;;;;;;11.35;8.70;;;;;;;21.21;89.78;99318.73;1705914;82;22282;-76
2022/08/15 00:38:28;;;;;;;9.60;8.45;;;;;;;21.22;89.70;99325.02;1709846;83;21818;-76
2022/08/15 00:43:56;;;;;;;17.82;8.48;;;;;;;21.00;90.83;99324.69;1682830;83;21063;-76
2022/08/15 00:46:22;;;;;;;9.88;8.95;;;;;;;20.92;91.31;99326.86;1705440;83;21513;-76
2022/08/15 00:48:50;;;;;;;10.08;8.70;;;;;;;20.91;91.52;99323.88;1700524;83;20991;-75
2022/08/15 00:51:22;;;;;;;12.03;8.83;;;;;;;20.89;91.55;99318.77;1694387;83;21088;-76
2022/08/15 00:53:59;;;;;;;9.20;8.40;;;;;;;20.90;91.50;99312.73;1690193;83;21030;-76
2022/08/15 00:56:28;;;;;;;9.95;7.97;;;;;;;20.93;91.09;99318.09;1699261;82;21036;-79
2022/08/15 00:58:55;;;;;;;9.53;7.62;;;;;;;20.92;91.08;99320.03;1702630;82;21067;-74
2022/08/15 01:01:22;;;;;;;11.03;9.33;;;;;;;20.95;91.08;99320.77;1705823;82;21095;-74
2022/08/15 01:03:50;;;;;;;11.57;9.08;;;;;;;20.95;90.88;99317.22;1708849;82;21746;-72
2022/08/15 01:06:19;;;;;;;10.63;9.73;;;;;;;20.90;91.08;99310.00;1715492;81;20933;-73
2022/08/15 01:08:47;;;;;;;10.72;8.35;;;;;;;20.87;91.19;99317.47;1702131;82;21079;-74
2022/08/15 01:11:31;;;;;;;9.75;8.43;;;;;;;20.89;90.99;99310.56;1685215;84;21061;-74
2022/08/15 01:14:01;;;;;;;9.33;8.35;;;;;;;20.91;90.85;99306.70;1708847;83;21071;-75
2022/08/15 01:16:29;;;;;;;13.85;8.53;;;;;;;20.92;90.84;99304.99;1719917;83;21979;-74
2022/08/15 01:18:56;;;;;;;8.65;7.95;;;;;;;20.94;90.73;99299.20;1700144;83;21023;-73
2022/08/15 01:21:38;;;;;;;9.78;8.75;;;;;;;20.97;90.55;99293.88;1704254;84;21001;-73
2022/08/15 01:24:33;;;;;;;14.73;9.13;;;;;;;21.02;90.35;99296.43;1690956;83;21014;-75
2022/08/15 01:27:00;;;;;;;13.22;8.05;;;;;;;21.06;89.99;99299.30;1662279;85;21005;-75
2022/08/15 01:29:27;;;;;;;11.95;8.38;;;;;;;21.05;89.81;99293.06;1709887;83;21907;-73
2022/08/15 01:31:54;;;;;;;11.55;8.70;;;;;;;21.04;89.80;99292.81;1710850;83;21040;-74
2022/08/15 01:34:23;;;;;;;11.95;8.30;;;;;;;21.03;89.82;99288.47;1702198;83;21087;-74
2022/08/15 01:36:51;;;;;;;8.70;7.80;;;;;;;21.06;89.74;99292.47;1699254;83;21029;-75
2022/08/15 01:39:42;;;;;;;9.55;8.65;;;;;;;21.06;89.59;99293.83;1703670;82;21532;-74
2022/08/15 01:42:13;;;;;;;8.63;7.65;;;;;;;21.08;89.45;99292.95;1707371;84;21514;-75
2022/08/15 01:44:50;;;;;;;11.18;7.05;;;;;;;21.07;89.41;99290.78;1694475;83;20973;-74
2022/08/15 01:47:59;;;;;;;8.48;7.60;;;;;;;21.11;89.37;99293.66;1681229;85;21596;-76
2022/08/15 01:50:45;;;;;;;9.23;8.13;;;;;;;21.18;89.05;99293.98;1708036;83;21509;-74
2022/08/15 01:53:24;;;;;;;9.95;8.90;;;;;;;21.14;88.89;99294.41;1709768;83;21008;-74
2022/08/15 01:56:11;;;;;;;10.32;9.25;;;;;;;21.11;89.05;99289.55;1708624;83;21145;-73
2022/08/15 01:58:42;;;;;;;13.10;8.53;;;;;;;21.12;89.08;99288.42;1691368;83;20941;-74
2022/08/15 02:01:17;;;;;;;10.58;8.28;;;;;;;21.16;88.96;99283.92;1697720;83;21501;-74
2022/08/15 02:03:45;;;;;;;8.25;7.50;;;;;;;21.17;88.84;99280.88;1692177;83;21044;-73
2022/08/15 02:06:20;;;;;;;11.33;7.95;;;;;;;21.20;88.66;99285.67;1707204;83;21107;-73
2022/08/15 02:08:48;;;;;;;12.07;7.35;;;;;;;21.21;88.54;99281.00;1695691;82;21153;-73
2022/08/15 02:11:19;;;;;;;9.45;8.48;;;;;;;21.21;88.44;99281.81;1681368;85;20999;-73
2022/08/15 02:13:47;;;;;;;9.75;8.85;;;;;;;21.21;88.26;99269.50;1705619;83;21080;-75
2022/08/15 02:16:16;;;;;;;13.08;8.53;;;;;;;21.21;88.23;99272.80;1692003;83;21494;-72
2022/08/15 02:18:43;;;;;;;14.18;8.98;;;;;;;21.13;88.48;99271.73;1696223;83;21009;-72
2022/08/15 02:21:10;;;;;;;9.55;8.45;;;;;;;21.09;88.68;99268.59;1700729;83;21227;-73
2022/08/15 02:23:37;;;;;;;9.50;8.60;;;;;;;21.08;88.92;99268.34;1693513;82;20948;-73
2022/08/15 02:26:08;;;;;;;13.32;9.63;;;;;;;21.08;88.86;99266.97;1692959;82;21098;-72
2022/08/15 02:28:35;;;;;;;8.38;7.58;;;;;;;21.07;88.96;99265.36;1693860;82;21029;-74
2022/08/15 02:31:10;;;;;;;9.93;7.67;;;;;;;21.10;88.88;99266.09;1694665;83;21161;-74
2022/08/15 02:33:38;;;;;;;15.32;8.85;;;;;;;21.11;88.82;99269.84;1692122;83;23338;-75
2022/08/15 02:36:06;;;;;;;10.78;8.13;;;;;;;21.13;88.69;99273.09;1706812;83;21008;-73
2022/08/15 02:38:36;;;;;;;11.03;8.50;;;;;;;21.16;88.57;99272.42;1700147;83;21024;-74
2022/08/15 02:41:03;;;;;;;9.05;8.25;;;;;;;21.20;88.43;99273.36;1706348;82;21552;-74
2022/08/15 02:43:29;;;;;;;9.75;8.65;;;;;;;21.15;88.43;99270.81;1687179;83;21068;-73
2022/08/15 02:45:59;;;;;;;10.68;9.73;;;;;;;21.08;88.79;99269.71;1698159;83;21545;-75
2022/08/15 02:48:25;;;;;;;8.28;7.58;;;;;;;21.04;89.12;99272.88;1685648;83;21020;-74
2022/08/15 02:50:53;;;;;;;9.15;8.08;;;;;;;20.99;89.56;99270.31;1683951;83;21401;-72
2022/08/15 02:53:22;;;;;;;8.15;7.45;;;;;;;21.00;89.58;99267.27;1671678;84;21096;-73
2022/08/15 02:55:49;;;;;;;11.12;9.13;;;;;;;21.04;89.38;99265.47;1660042;84;21028;-74
2022/08/15 02:58:16;;;;;;;26.35;10.05;;;;;;;21.07;89.17;99266.73;1673166;85;21202;-73
2022/08/15 03:00:47;;;;;;;16.90;8.95;;;;;;;21.06;89.12;99260.45;1658413;85;20969;-74
2022/08/15 03:03:16;;;;;;;10.95;9.85;;;;;;;21.08;89.10;99265.05;1645373;85;21049;-74
2022/08/15 03:05:47;;;;;;;10.78;8.38;;;;;;;21.09;89.05;99269.39;1670618;84;21127;-73
2022/08/15 03:08:13;;;;;;;10.45;9.30;;;;;;;21.10;89.03;99263.36;1647752;86;21033;-75
2022/08/15 03:10:41;;;;;;;19.65;9.83;;;;;;;21.07;89.15;99271.64;1652172;84;22141;-74
2022/08/15 03:13:13;;;;;;;11.63;9.93;;;;;;;21.05;89.29;99271.18;1668864;85;21084;-74
2022/08/15 03:15:48;;;;;;;11.08;9.88;;;;;;;21.04;89.51;99268.77;1649540;85;21022;-74
2022/08/15 03:18:14;;;;;;;10.85;9.83;;;;;;;21.05;89.64;99271.75;1649443;85;21563;-75
2022/08/15 03:20:43;;;;;;;10.25;9.30;;;;;;;21.08;89.57;99265.61;1661063;85;21549;-74
2022/08/15 03:23:11;;;;;;;11.78;9.28;;;;;;;21.11;89.48;99273.95;1666090;85;21757;-75
2022/08/15 03:25:52;;;;;;;14.45;11.05;;;;;;;21.13;89.45;99274.46;1669323;84;21067;-74
2022/08/15 03:28:23;;;;;;;9.58;8.68;;;;;;;21.15;89.31;99274.14;1638559;85;21582;-74
2022/08/15 03:30:50;;;;;;;9.20;8.35;;;;;;;21.19;89.14;99275.89;1676004;85;21091;-74
2022/08/15 03:33:17;;;;;;;16.40;9.68;;;;;;;21.25;88.91;99273.17;1677652;85;21036;-76
2022/08/15 03:35:48;;;;;;;11.93;10.68;;;;;;;21.30;88.62;99280.39;1653019;85;21126;-74
2022/08/15 03:38:17;;;;;;;16.93;8.80;;;;;;;21.31;88.30;99282.00;1658332;86;21527;-74
2022/08/15 03:40:46;;;;;;;12.95;9.33;;;;;;;21.28;88.36;99275.27;1661207;85;21109;-75
2022/08/15 03:43:19;;;;;;;13.30;9.33;;;;;;;21.30;88.44;99277.66;1639636;86;21033;-74
2022/08/15 03:45:51;;;;;;;10.13;8.23;;;;;;;21.32;88.38;99274.03;1634345;86;21049;-74
2022/08/15 03:48:21;;;;;;;17.03;9.87;;;;;;;21.37;88.12;99271.67;1634511;86;21266;-75
2022/08/15 03:50:52;;;;;;;14.38;8.83;;;;;;;21.40;87.98;99267.70;1636836;86;21530;-75
2022/08/15 03:53:19;;;;;;;9.98;9.00;;;;;;;21.43;87.73;99265.69;1638565;86;21383;-75
2022/08/15 03:55:46;;;;;;;11.57;9.63;;;;;;;21.46;87.49;99270.48;1652527;86;21550;-75
2022/08/15 03:58:14;;;;;;;11.12;10.10;;;;;;;21.48;87.35;99270.16;1661696;86;21518;-75
2022/08/15 04:00:46;;;;;;;11.60;10.43;;;;;;;21.46;87.26;99263.64;1660373;86;21903;-74
2022/08/15 04:03:17;;;;;;;14.93;10.00;;;;;;;21.46;87.31;99269.12;1653830;86;21056;-74
2022/08/15 04:05:49;;;;;;;15.20;9.48;;;;;;;21.46;87.37;99269.12;1639094;86;21060;-75
2022/08/15 04:08:17;;;;;;;11.40;9.87;;;;;;;21.47;87.39;99267.19;1635357;86;21024;-76
2022/08/15 04:10:45;;;;;;;16.30;9.85;;;;;;;21.50;87.42;99265.14;1639361;86;21033;-76
2022/08/15 04:13:13;;;;;;;12.73;11.60;;;;;;;21.53;87.29;99265.30;1648563;86;21552;-76
2022/08/15 04:15:41;;;;;;;12.75;11.45;;;;;;;21.57;87.09;99267.60;1678278;83;21045;-76
2022/08/15 04:18:09;;;;;;;10.53;9.43;;;;;;;21.60;86.99;99258.72;1686673;83;20983;-76
2022/08/15 04:20:37;;;;;;;10.53;8.98;;;;;;;21.61;86.83;99257.59;1683822;83;21020;-76
2022/08/15 04:23:07;;;;;;;14.18;8.78;;;;;;;21.62;86.74;99261.94;1709461;83;21535;-76
2022/08/15 04:25:37;;;;;;;9.73;8.80;;;;;;;21.66;86.58;99262.06;1690522;82;21857;-74
2022/08/15 04:28:05;;;;;;;13.20;9.45;;;;;;;21.69;86.44;99260.02;1683657;83;20941;-73
2022/08/15 04:30:38;;;;;;;10.45;9.55;;;;;;;21.72;86.25;99260.17;1673853;83;21595;-72
2022/08/15 04:33:17;;;;;;;12.73;9.48;;;;;;;21.74;85.92;99257.88;1683334;83;21102;-73
2022/08/15 04:35:49;;;;;;;11.83;9.90;;;;;;;21.73;85.73;99260.38;1713379;83;21560;-74
2022/08/15 04:38:16;;;;;;;9.23;8.38;;;;;;;21.75;85.71;99258.12;1718118;83;21773;-75
2022/08/15 04:40:44;;;;;;;10.20;8.70;;;;;;;21.80;85.44;99254.95;1717652;82;20944;-74
2022/08/15 04:43:11;;;;;;;9.40;8.55;;;;;;;21.82;85.13;99248.02;1717952;83;21063;-73
2022/08/15 04:45:40;;;;;;;11.10;10.05;;;;;;;21.86;84.98;99244.03;1702397;81;21345;-73
2022/08/15 04:48:09;;;;;;;9.85;8.80;;;;;;;21.84;85.02;99242.98;1690994;82;21010;-73
2022/08/15 04:50:37;;;;;;;14.58;12.53;;;;;;;21.88;84.88;99246.66;1690852;84;21182;-74
2022/08/15 04:53:20;;;;;;;12.75;11.00;;;;;;;21.93;84.54;99247.02;1715265;83;21610;-71
2022/08/15 04:55:41;;;;;;;12.68;10.00;;;;;;;21.98;84.45;99250.95;1709323;82;21023;-73
2022/08/15 04:58:04;;;;;;;12.88;9.85;;;;;;;22.02;84.13;99255.42;1687638;84;21027;-73
2022/08/15 05:00:32;;;;;;;9.73;8.53;;;;;;;22.07;83.81;99257.15;1688074;85;21361;-74
2022/08/15 05:03:14;;;;;;;17.92;9.95;;;;;;;22.11;83.71;99266.29;1717738;81;21183;-75
2022/08/15 05:05:44;;;;;;;12.43;9.88;;;;;;;22.17;83.36;99260.28;1714970;83;21003;-73
2022/08/15 05:08:12;;;;;;;9.70;8.70;;;;;;;22.24;83.09;99263.05;1687928;85;21131;-73
2022/08/15 05:10:40;;;;;;;11.43;9.48;;;;;;;22.31;82.94;99251.76;1708728;83;21031;-74
2022/08/15 05:13:16;;;;;;;13.83;10.25;;;;;;;22.33;82.92;99252.80;1686254;84;21086;-74
2022/08/15 05:15:45;;;;;;;10.18;9.05;;;;;;;22.37;82.75;99249.04;1693227;83;21595;-74
2022/08/15 05:18:13;;;;;;;18.27;12.55;;;;;;;22.44;82.59;99259.46;1708850;83;21058;-74
2022/08/15 05:20:41;;;;;;;10.93;9.93;;;;;;;22.49;82.27;99255.91;1711022;83;21120;-74
2022/08/15 05:23:12;;;;;;;14.30;9.68;;;;;;;22.53;82.06;99255.48;1710309;83;21048;-75
2022/08/15 05:25:44;;;;;;;12.00;10.85;;;;;;;22.58;81.78;99262.69;1683740;83;21052;-74
2022/08/15 05:28:12;;;;;;;10.63;9.65;;;;;;;22.62;81.71;99258.12;1682612;85;21276;-75
2022/08/15 05:30:40;;;;;;;10.32;9.45;;;;;;;22.66;81.33;99256.30;1682448;85;21095;-73
2022/08/15 05:33:12;;;;;;;13.20;10.48;;;;;;;22.71;81.10;99259.42;1683178;83;21020;-75
2022/08/15 05:35:41;;;;;;;11.50;10.00;;;;;;;22.77;80.83;99257.50;1684459;83;21742;-75
2022/08/15 05:38:15;;;;;;;12.43;9.28;;;;;;;22.83;80.65;99256.11;1655377;85;21055;-76
2022/08/15 05:40:53;;;;;;;11.50;10.50;;;;;;;22.90;80.48;99256.93;1696130;82;21205;-73
2022/08/15 05:43:38;;;;;;;11.78;10.58;;;;;;;22.92;80.09;99254.09;1677654;85;21029;-73
2022/08/15 05:46:16;;;;;;;12.18;10.98;;;;;;;22.95;79.81;99259.45;1682640;83;21028;-74
2022/08/15 05:48:43;;;;;;;13.35;11.18;;;;;;;22.97;79.12;99250.31;1681016;85;21525;-76
2022/08/15 05:51:27;;;;;;;18.60;9.48;;;;;;;22.98;79.19;99245.84;1678385;83;21087;-75
2022/08/15 05:54:38;;;;;;;11.80;10.63;;;;;;;23.00;79.25;99247.68;1710977;82;21401;-77
2022/08/15 05:57:16;;;;;;;14.23;9.30;;;;;;;23.04;78.97;99253.28;1710667;83;21043;-77
2022/08/15 05:59:48;;;;;;;11.50;10.45;;;;;;;23.03;78.62;99242.88;1711211;83;21406;-74
2022/08/15 06:02:29;;;;;;;12.07;11.00;;;;;;;23.04;78.12;99236.25;1707930;83;21490;-72
2022/08/15 06:05:11;;;;;;;10.68;9.68;;;;;;;23.07;78.25;99240.83;1711088;83;21568;-72
2022/08/15 06:07:39;;;;;;;11.25;10.00;;;;;;;23.04;78.19;99243.67;1688918;83;21109;-74
2022/08/15 06:10:12;;;;;;;12.90;10.08;;;;;;;23.07;78.04;99249.06;1707075;82;21056;-74
2022/08/15 06:12:44;;;;;;;10.58;9.18;;;;;;;23.13;77.84;99249.04;1707467;83;21099;-74
2022/08/15 06:15:22;;;;;;;14.03;11.35;;;;;;;23.20;77.58;99246.53;1708576;82;21032;-74
2022/08/15 06:18:02;;;;;;;15.15;10.20;;;;;;;23.27;76.81;99241.25;1700348;83;21012;-74
2022/08/15 06:20:41;;;;;;;13.83;11.53;;;;;;;23.31;76.56;99242.19;1694533;84;21565;-75
2022/08/15 06:23:19;;;;;;;12.18;9.58;;;;;;;23.32;76.31;99243.20;1681225;82;21529;-73
2022/08/15 06:26:12;;;;;;;16.70;10.38;;;;;;;23.36;76.22;99244.10;1683210;82;21023;-76
2022/08/15 06:29:12;;;;;;;9.25;8.40;;;;;;;23.42;76.20;99235.86;1642078;86;21087;-76
2022/08/15 06:31:48;;;;;;;13.15;9.90;;;;;;;23.53;75.20;99238.97;1680899;85;21075;-74
2022/08/15 06:34:35;;;;;;;11.65;10.30;;;;;;;23.54;74.92;99239.77;1677494;83;21153;-73
2022/08/15 06:37:28;;;;;;;19.10;10.98;;;;;;;23.52;74.03;99236.56;1672098;83;21568;-75
2022/08/15 06:40:16;;;;;;;11.20;10.03;;;;;;;23.52;74.29;99244.80;1710542;82;21048;-72
2022/08/15 06:42:45;;;;;;;11.50;8.55;;;;;;;23.54;74.05;99244.70;1708027;84;21004;-71
2022/08/15 06:45:22;;;;;;;9.73;8.88;;;;;;;23.59;73.59;99238.96;1708853;84;21086;-74
2022/08/15 06:48:04;;;;;;;11.10;10.18;;;;;;;23.65;73.55;99240.87;1705365;83;21082;-72
2022/08/15 06:50:36;;;;;;;12.53;9.53;;;;;;;23.69;73.18;99241.20;1698116;83;21035;-75
2022/08/15 06:53:09;;;;;;;10.38;9.30;;;;;;;23.77;73.31;99249.09;1711187;82;20987;-75
2022/08/15 06:55:45;;;;;;;;;;;;;;;23.84;72.98;99249.28;1701240;82;21028;-73
2022/08/15 06:58:15;;;;;;;10.60;9.55;;;;;;;23.92;72.17;99250.30;1693752;83;20430;-74
2022/08/15 07:00:47;;;;;;;9.85;8.85;;;;;;;23.95;72.05;99249.02;1699175;84;21389;-76
2022/08/15 07:03:52;;;;;;;13.15;9.08;;;;;;;24.02;72.20;99256.11;1707630;82;20937;-73
2022/08/15 07:06:39;;;;;;;10.00;9.20;;;;;;;24.11;71.35;99250.45;1706749;83;20972;-73
2022/08/15 07:09:23;;;;;;;15.68;9.43;;;;;;;24.24;70.63;99252.02;1680627;83;21032;-79
2022/08/15 07:12:07;;;;;;;15.20;8.10;;;;;;;24.32;70.25;99247.73;1664748;83;21123;-74
2022/08/15 07:14:39;;;;;;;9.65;8.73;;;;;;;24.42;69.27;99237.37;1682559;84;21269;-74
2022/08/15 07:17:15;;;;;;;11.93;8.83;;;;;;;24.49;68.88;99237.57;1683837;83;21008;-73
2022/08/15 07:19:43;;;;;;;9.70;8.50;;;;;;;24.56;68.47;99248.16;1682568;85;21569;-75
2022/08/15 07:22:12;;;;;;;13.35;8.95;;;;;;;24.60;68.46;99252.41;1681683;85;21064;-74
2022/08/15 07:24:52;;;;;;;10.10;8.63;;;;;;;24.64;68.30;99246.41;1682543;85;21091;-74
2022/08/15 07:27:32;;;;;;;12.80;8.55;;;;;;;24.66;68.30;99249.02;1688907;82;21267;-75
2022/08/15 07:30:16;;;;;;;11.65;8.95;;;;;;;24.66;67.59;99257.27;1680914;85;21029;-72
2022/08/15 07:32:50;;;;;;;13.25;9.13;;;;;;;24.68;67.18;99262.43;1681045;85;21082;-75
2022/08/15 07:35:26;;;;;;;12.58;8.88;;;;;;;24.70;66.91;99272.48;1707304;83;21517;-72
2022/08/15 07:38:01;;;;;;;12.60;9.20;;;;;;;24.68;66.79;99274.23;1683265;83;22226;-73
2022/08/15 07:40:34;;;;;;;12.28;9.05;;;;;;;24.70;66.54;99277.98;1689554;82;21277;-72
2022/08/15 07:43:05;;;;;;;;;;;;;;;24.72;66.66;99278.44;1713310;83;21489;-75
2022/08/15 07:45:38;;;;;;;9.60;8.00;;;;;;;24.74;66.41;99278.33;1708087;83;20477;-74
2022/08/15 07:48:25;;;;;;;10.50;8.43;;;;;;;24.79;66.08;99276.46;1690563;82;21497;-74
2022/08/15 07:51:05;;;;;;;11.73;8.70;;;;;;;24.85;66.05;99284.08;1708504;83;21544;-72
2022/08/15 07:53:33;;;;;;;10.72;8.93;;;;;;;24.83;65.13;99286.40;1710544;83;21230;-75
2022/08/15 07:56:13;;;;;;;18.25;8.08;;;;;;;24.87;65.30;99287.31;1693623;82;21076;-74
2022/08/15 07:58:42;;;;;;;13.43;9.65;;;;;;;24.91;65.22;99284.08;1711246;83;21036;-75
2022/08/15 08:01:15;;;;;;;11.25;8.83;;;;;;;24.99;65.28;99279.53;1706344;82;21052;-76
2022/08/15 08:03:46;;;;;;;12.85;9.45;;;;;;;25.05;64.52;99270.66;1667041;85;21036;-72
2022/08/15 08:06:37;;;;;;;20.88;8.85;;;;;;;25.07;64.00;99275.25;1709641;83;22804;-74
2022/08/15 08:09:29;;;;;;;11.30;8.40;;;;;;;25.04;63.96;99278.70;1710397;82;21036;-75
2022/08/15 08:12:08;;;;;;;14.80;8.18;;;;;;;25.02;64.47;99279.64;1710747;83;21016;-74
2022/08/15 08:15:14;;;;;;;10.23;7.87;;;;;;;25.06;64.65;99275.59;1710388;83;21077;-74
2022/08/15 08:18:05;;;;;;;10.60;9.53;;;;;;;25.07;64.64;99274.45;1668166;83;21055;-72
2022/08/15 08:20:53;;;;;;;10.40;8.30;;;;;;;25.08;64.72;99274.67;1686170;83;21154;-75
2022/08/15 08:23:41;;;;;;;11.75;8.03;;;;;;;25.06;65.08;99269.52;1682336;85;21019;-74
2022/08/15 08:26:34;;;;;;;12.43;9.28;;;;;;;25.10;65.12;99268.22;1612549;84;21009;-74
2022/08/15 08:29:27;;;;;;;8.18;7.47;;;;;;;25.10;64.98;99261.34;1672575;84;21074;-76
2022/08/15 08:32:09;;;;;;;15.38;8.55;;;;;;;25.11;64.93;99276.70;1671404;85;21129;-74
2022/08/15 08:34:54;;;;;;;11.75;9.48;;;;;;;25.12;65.37;99284.61;1667128;85;21190;-75
2022/08/15 08:37:41;;;;;;;11.38;8.13;;;;;;;25.14;65.47;99272.66;1643847;87;21030;-73
2022/08/15 08:44:19;;;;;;;12.17;9.50;;;;;;;25.23;65.92;99276.59;1633744;86;21476;-74
2022/08/15 08:47:12;;;;;;;24.52;17.92;;;;;;;25.33;65.91;99271.11;1621467;87;21353;-71
2022/08/15 08:49:45;;;;;;;;;;;;;;;25.36;66.19;99271.80;1656217;85;23215;-73
2022/08/15 08:52:37;;;;;;;10.30;8.58;;;;;;;25.46;65.81;99267.11;1685207;82;20527;-73
2022/08/15 08:55:25;;;;;;;14.58;7.90;;;;;;;25.53;65.81;99261.75;1667713;83;21111;-72
2022/08/15 08:58:04;;;;;;;9.05;7.92;;;;;;;25.60;65.24;99259.20;1683174;83;21134;-71
2022/08/15 09:00:43;;;;;;;10.58;8.70;;;;;;;25.66;64.39;99261.86;1700229;81;21096;-76
2022/08/15 09:03:17;;;;;;;10.68;6.97;;;;;;;25.68;64.31;99265.07;1689424;85;21251;-73
2022/08/15 09:05:51;;;;;;;9.60;6.78;;;;;;;25.70;63.64;99266.09;1689384;85;21216;-71
2022/08/15 09:08:33;;;;;;;;;;;;;;;25.71;63.23;99271.23;1694713;81;20983;-71
2022/08/15 09:11:08;;;;;;;8.28;7.40;;;;;;;25.73;63.51;99280.52;1700288;82;20179;-72
2022/08/15 09:13:38;;;;;;;10.30;7.20;;;;;;;25.79;63.49;99285.39;1688963;81;21033;-71
2022/08/15 09:16:19;;;;;;;13.35;7.85;;;;;;;25.88;63.22;99294.25;1721494;82;21048;-74
2022/08/15 09:18:56;;;;;;;7.47;6.75;;;;;;;25.97;61.33;99288.52;1732342;82;20937;-70
2022/08/15 09:21:23;;;;;;;12.40;6.62;;;;;;;25.97;61.33;99288.52;1721818;81;21102;-72
2022/08/15 09:23:50;;;;;;;15.10;7.15;;;;;;;25.93;60.42;99288.45;1733859;81;21047;-72
2022/08/15 09:26:33;;;;;;;7.08;6.37;;;;;;;25.96;60.09;99286.91;1745470;81;21013;-71
2022/08/15 09:29:22;;;;;;;18.82;10.90;;;;;;;26.01;59.82;99283.87;1720001;81;22373;-71
2022/08/15 09:32:29;;;;;;;10.40;7.37;;;;;;;26.09;59.67;99284.84;1728263;81;21452;-72
2022/08/15 09:35:31;;;;;;;9.10;7.08;;;;;;;26.17;59.29;99281.85;1716766;81;21041;-70
2022/08/15 09:38:27;;;;;;;7.92;7.10;;;;;;;26.25;59.32;99284.19;1707484;81;21133;-78
2022/08/15 09:41:25;;;;;;;13.78;7.45;;;;;;;26.34;59.43;99267.63;1729297;82;21024;-71
2022/08/15 09:44:12;;;;;;;7.40;6.70;;;;;;;26.41;58.71;99271.13;1689493;82;21077;-73
2022/08/15 09:47:08;;;;;;;9.50;6.70;;;;;;;26.43;58.56;99275.67;1675510;83;20945;-69
2022/08/15 09:50:03;;;;;;;11.95;6.60;;;;;;;26.49;57.89;99279.73;1696722;82;20980;-73
2022/08/15 09:52:56;;;;;;;8.83;6.35;;;;;;;26.47;57.98;99269.66;1683980;83;21166;-75
2022/08/15 09:55:44;;;;;;;8.18;6.45;;;;;;;26.50;58.30;99273.64;1687617;83;21028;-74
2022/08/15 09:58:22;;;;;;;14.05;6.70;;;;;;;26.54;57.69;99268.41;1706429;83;21807;-72
2022/08/15 10:01:10;;;;;;;29.50;6.80;;;;;;;26.61;57.73;99268.55;1703721;83;21015;-73
2022/08/15 10:03:51;;;;;;;8.00;6.65;;;;;;;26.65;57.17;99269.41;1663685;83;21064;-73
2022/08/15 10:06:23;;;;;;;8.35;5.85;;;;;;;26.63;57.25;99269.53;1697596;83;21028;-78
2022/08/15 10:08:58;;;;;;;11.12;6.22;;;;;;;26.56;57.13;99268.84;1650365;86;21556;-78
2022/08/15 10:11:35;;;;;;;12.65;7.50;;;;;;;26.55;56.86;99265.06;1650635;86;21872;-75
2022/08/15 10:14:10;;;;;;;9.08;5.90;;;;;;;26.51;57.15;99265.59;1644439;85;21063;-76
2022/08/15 10:16:41;;;;;;;15.35;6.78;;;;;;;26.55;57.26;99253.45;1636394;86;21052;-76
2022/08/15 10:19:30;;;;;;;15.45;6.17;;;;;;;26.62;57.25;99260.46;1647192;86;21508;-76
2022/08/15 10:21:59;;;;;;;10.75;7.30;;;;;;;26.71;56.96;99259.66;1649734;86;21075;-78
2022/08/15 10:24:32;;;;;;;10.40;6.75;;;;;;;26.79;56.76;99258.61;1635644;86;21806;-76
2022/08/15 10:27:09;;;;;;;7.65;5.85;;;;;;;26.73;56.22;99262.03;1646257;86;20972;-81
2022/08/15 10:29:48;;;;;;;16.60;7.25;;;;;;;26.74;56.53;99262.25;1650462;85;21048;-78
2022/08/15 10:32:47;;;;;;;12.45;6.80;;;;;;;26.81;56.41;99256.88;1646114;84;21526;-80
2022/08/15 10:35:36;;;;;;;23.60;7.12;;;;;;;26.94;56.04;99251.98;1671232;85;21062;-81
2022/08/15 10:38:09;;;;;;;12.60;7.30;;;;;;;27.00;55.56;99239.47;1683833;83;41364;-83
2022/08/15 10:40:51;;;;;;;6.60;5.97;;;;;;;27.08;55.88;99241.97;1687432;82;21072;-82
2022/08/15 10:43:39;;;;;;;8.43;5.30;;;;;;;27.19;55.57;99234.66;1707260;82;21051;-83
2022/08/15 10:46:38;;;;;;;8.48;5.95;;;;;;;27.28;55.50;99239.91;1691762;83;21051;-82
2022/08/15 10:49:36;;;;;;;15.30;7.67;;;;;;;27.34;54.10;99238.39;1718026;82;20979;-79
2022/08/15 10:52:28;;;;;;;16.82;6.03;;;;;;;27.43;52.89;99234.00;1682332;85;21882;-80
2022/08/15 10:55:18;;;;;;;12.00;6.17;;;;;;;27.47;52.56;99237.03;1691270;84;21560;-81
2022/08/15 10:57:50;;;;;;;9.25;4.97;;;;;;;27.47;52.32;99250.04;1691050;82;20968;-79
2022/08/15 11:00:37;;;;;;;7.37;4.80;;;;;;;27.49;52.28;99249.09;1690842;83;21040;-78
2022/08/15 11:03:18;;;;;;;8.90;5.15;;;;;;;27.42;52.31;99255.30;1718099;82;21000;-82
2022/08/15 11:06:06;;;;;;;10.30;5.85;;;;;;;27.33;52.41;99255.58;1681820;84;21143;-77
2022/08/15 11:08:36;;;;;;;25.97;6.10;;;;;;;27.30;52.74;99252.73;1669982;83;21091;-78
2022/08/15 11:11:07;;;;;;;10.20;6.33;;;;;;;27.31;52.76;99239.95;1691060;83;21018;-75
2022/08/15 11:13:35;;;;;;;10.75;5.92;;;;;;;27.31;52.93;99226.72;1718203;83;21055;-78
2022/08/15 11:16:18;;;;;;;10.53;5.62;;;;;;;27.30;53.16;99223.16;1718611;81;21517;-81
2022/08/15 11:18:54;;;;;;;7.62;6.20;;;;;;;27.31;53.39;99219.23;1706687;82;21416;-82
2022/08/15 11:21:43;;;;;;;9.43;6.08;;;;;;;27.32;53.88;99219.45;1732005;81;21028;-81
2022/08/15 11:24:10;;;;;;;13.75;5.60;;;;;;;27.27;54.51;99201.82;1736432;81;20979;-85
2022/08/15 11:26:41;;;;;;;8.05;5.35;;;;;;;27.23;55.33;99198.80;1711044;81;21072;-74
2022/08/15 11:29:20;;;;;;;11.93;6.30;;;;;;;27.17;56.38;99198.31;1710815;81;21557;-73
2022/08/15 11:31:57;;;;;;;9.80;6.65;;;;;;;27.07;57.54;99191.25;1706582;82;21192;-71
2022/08/15 11:34:34;;;;;;;9.65;7.50;;;;;;;26.99;58.14;99200.60;1695697;83;21308;-73
2022/08/15 11:37:14;;;;;;;12.82;7.03;;;;;;;26.93;58.44;99200.70;1698575;83;21003;-69
2022/08/15 11:39:43;;;;;;;11.63;5.97;;;;;;;26.90;58.27;99200.87;1717554;81;21091;-70
2022/08/15 11:42:17;;;;;;;9.20;5.95;;;;;;;26.89;58.05;99214.45;1705097;82;21600;-74
2022/08/15 11:44:48;;;;;;;10.53;5.58;;;;;;;26.90;58.31;99214.67;1703298;83;21235;-74
2022/08/15 11:47:16;;;;;;;12.55;5.72;;;;;;;26.92;58.09;99215.66;1685225;82;21675;-71
2022/08/15 11:49:48;;;;;;;16.90;6.55;;;;;;;26.92;57.95;99215.66;1688636;83;21527;-68
2022/08/15 11:52:35;;;;;;;14.53;10.30;;;;;;;26.92;57.99;99216.45;1701300;82;21031;-70
2022/08/15 11:55:24;;;;;;;8.38;5.87;;;;;;;26.89;57.64;99220.77;1710791;83;21592;-77
2022/08/15 11:57:55;;;;;;;17.60;5.78;;;;;;;26.88;57.66;99220.55;1677786;83;21587;-79
2022/08/15 12:00:39;;;;;;;14.38;6.60;;;;;;;26.91;57.22;99221.76;1691804;83;21064;-75
2022/08/15 12:03:32;;;;;;;9.65;5.45;;;;;;;26.94;57.00;99218.28;1682583;82;21031;-77
2022/08/15 12:06:16;;;;;;;7.90;5.42;;;;;;;26.95;56.42;99217.12;1712162;82;21001;-76
2022/08/15 12:08:44;;;;;;;14.53;6.05;;;;;;;27.01;56.66;99218.95;1741182;82;21085;-76
2022/08/15 12:11:18;;;;;;;14.70;5.97;;;;;;;27.05;56.57;99216.45;1687845;82;21173;-76
2022/08/15 12:14:01;;;;;;;9.98;5.55;;;;;;;27.09;56.56;99222.86;1689812;84;21018;-72